Back to Top

Language: 

My Weather Underground Personal Weather Station Historical Data with Graphs...

Delerius Weather Station Historical Data
Daily Summary for June 18, 2017 Units:  English    Metric   Both
« Previous Day
Next Day »
Daily Weekly Monthly Yearly Custom
  High: Low: Average:
Temperature: 88.0 °F 55.6 °F 73.8 °F
Dew Point: 62.8 °F 52.3 °F 58.3 °F
Humidity: 91 % 38 % 62 %
Wind Speed: 8.0 mph 0.0 mph 2.3 mph
Wind Gust: 15.0 mph - -
Wind:- - West
Pressure: 30.25 in 30.13 in -
Precipitation: 0.00 in    
Historical Graphs
 
 
Tabular Data for June 18, 2017
Time Temperature Dew Point Pressure Wind Wind Speed Wind Gust Humidity Rainfall Rate (Hourly) solar Conditions
00:04 64.9 °F 56.1 °F 30.25 in WNW 3.0 mph 6.0 mph 73 % 0.00 in 0 W/m2
00:09 64.9 °F 56.1 °F 30.25 in WNW 3.0 mph 6.0 mph 73 % 0.00 in 0 W/m2
00:14 64.8 °F 55.9 °F 30.25 in WNW 2.0 mph 5.0 mph 73 % 0.00 in 0 W/m2
00:19 64.6 °F 56.1 °F 30.25 in WNW 2.0 mph 5.0 mph 74 % 0.00 in 0 W/m2
00:24 64.6 °F 56.5 °F 30.25 in Calm   4.0 mph 75 % 0.00 in 0 W/m2
00:30 64.2 °F 56.5 °F 30.25 in Calm     76 % 0.00 in 0 W/m2
00:35 64.0 °F 57.0 °F 30.25 in Calm     78 % 0.00 in 0 W/m2
00:40 63.7 °F 57.0 °F 30.25 in Calm     79 % 0.00 in 0 W/m2
00:45 63.1 °F 56.5 °F 30.25 in Calm     79 % 0.00 in 0 W/m2
00:50 62.8 °F 56.5 °F 30.25 in Calm     80 % 0.00 in 0 W/m2
00:55 62.4 °F 56.2 °F 30.25 in Calm   1.0 mph 80 % 0.00 in 0 W/m2
01:00 62.2 °F 56.0 °F 30.24 in Calm   4.0 mph 80 % 0.00 in 0 W/m2
01:05 62.1 °F 55.8 °F 30.24 in WNW 1.0 mph 4.0 mph 80 % 0.00 in 0 W/m2
01:10 61.9 °F 56.0 °F 30.24 in Calm   3.0 mph 81 % 0.00 in 0 W/m2
01:15 61.5 °F 55.6 °F 30.25 in Calm   1.0 mph 81 % 0.00 in 0 W/m2
01:20 61.3 °F 55.5 °F 30.24 in Calm   2.0 mph 81 % 0.00 in 0 W/m2
01:25 61.2 °F 55.3 °F 30.24 in Calm   2.0 mph 81 % 0.00 in 0 W/m2
01:30 61.2 °F 55.6 °F 30.24 in Calm   2.0 mph 82 % 0.00 in 0 W/m2
01:35 61.0 °F 55.4 °F 30.24 in Calm   3.0 mph 82 % 0.00 in 0 W/m2
01:40 60.8 °F 55.3 °F 30.24 in Calm   3.0 mph 82 % 0.00 in 0 W/m2
01:45 60.4 °F 55.3 °F 30.24 in Calm     83 % 0.00 in 0 W/m2
01:50 60.3 °F 55.4 °F 30.24 in Calm     84 % 0.00 in 0 W/m2
01:55 60.1 °F 55.6 °F 30.24 in Calm   1.0 mph 85 % 0.00 in 0 W/m2
02:00 60.1 °F 55.6 °F 30.24 in WNW 1.0 mph 2.0 mph 85 % 0.00 in 0 W/m2
02:05 59.7 °F 54.9 °F 30.24 in WNW 1.0 mph 2.0 mph 84 % 0.00 in 0 W/m2
02:10 59.7 °F 55.2 °F 30.24 in Calm   2.0 mph 85 % 0.00 in 0 W/m2
02:15 59.5 °F 55.0 °F 30.24 in Calm   2.0 mph 85 % 0.00 in 0 W/m2
02:20 59.4 °F 54.8 °F 30.24 in Calm   2.0 mph 85 % 0.00 in 0 W/m2
02:25 59.2 °F 54.7 °F 30.24 in Calm   2.0 mph 85 % 0.00 in 0 W/m2
02:30 58.8 °F 54.3 °F 30.24 in Calm   2.0 mph 85 % 0.00 in 0 W/m2
02:35 58.8 °F 54.3 °F 30.24 in Calm   2.0 mph 85 % 0.00 in 0 W/m2
02:36 58.8 °F 54.3 °F 30.23 in Calm   2.0 mph 85 % 0.00 in 0 W/m2
02:41 58.6 °F 54.1 °F 30.23 in Calm   2.0 mph 85 % 0.00 in 0 W/m2
02:46 58.6 °F 54.1 °F 30.23 in Calm   2.0 mph 85 % 0.00 in 0 W/m2
02:51 58.5 °F 54.0 °F 30.23 in Calm   2.0 mph 85 % 0.00 in 0 W/m2
02:56 58.5 °F 54.3 °F 30.23 in Calm   2.0 mph 86 % 0.00 in 0 W/m2
03:01 58.5 °F 54.0 °F 30.23 in Calm     85 % 0.00 in 0 W/m2
03:06 58.3 °F 53.8 °F 30.23 in Calm     85 % 0.00 in 0 W/m2
03:11 58.1 °F 53.6 °F 30.23 in Calm     85 % 0.00 in 0 W/m2
03:16 57.9 °F 53.8 °F 30.23 in Calm     86 % 0.00 in 0 W/m2
03:21 57.7 °F 53.6 °F 30.23 in Calm     86 % 0.00 in 0 W/m2
03:26 57.7 °F 53.6 °F 30.23 in Calm     86 % 0.00 in 0 W/m2
03:31 57.6 °F 53.4 °F 30.23 in Calm     86 % 0.00 in 0 W/m2
03:36 57.4 °F 53.5 °F 30.23 in Calm     87 % 0.00 in 0 W/m2
03:39 57.4 °F 53.5 °F 30.22 in Calm     87 % 0.00 in 0 W/m2
03:44 57.6 °F 53.7 °F 30.23 in Calm     87 % 0.00 in 0 W/m2
03:49 57.4 °F 53.5 °F 30.22 in Calm     87 % 0.00 in 0 W/m2
03:54 57.4 °F 53.5 °F 30.22 in Calm     87 % 0.00 in 0 W/m2
03:59 57.2 °F 53.4 °F 30.23 in Calm     87 % 0.00 in 0 W/m2
04:04 57.0 °F 53.2 °F 30.22 in Calm     87 % 0.00 in 0 W/m2
04:09 56.8 °F 53.0 °F 30.22 in Calm     87 % 0.00 in 0 W/m2
04:14 56.7 °F 52.8 °F 30.22 in Calm     87 % 0.00 in 0 W/m2
04:19 56.7 °F 52.8 °F 30.23 in Calm     87 % 0.00 in 0 W/m2
04:24 56.5 °F 53.0 °F 30.23 in Calm     88 % 0.00 in 0 W/m2
04:29 56.5 °F 52.7 °F 30.23 in Calm     87 % 0.00 in 0 W/m2
04:34 56.1 °F 52.3 °F 30.23 in Calm     87 % 0.00 in 0 W/m2
04:40 56.1 °F 52.6 °F 30.23 in Calm     88 % 0.00 in 5 W/m2
04:45 55.9 °F 52.4 °F 30.23 in Calm     88 % 0.00 in 7 W/m2
04:50 55.9 °F 52.4 °F 30.23 in Calm     88 % 0.00 in 7 W/m2
04:55 55.8 °F 52.3 °F 30.23 in Calm     88 % 0.00 in 9 W/m2
05:00 55.8 °F 52.6 °F 30.23 in Calm     89 % 0.00 in 11 W/m2
05:05 55.6 °F 52.4 °F 30.23 in Calm     89 % 0.00 in 12 W/m2
05:10 55.6 °F 52.4 °F 30.23 in Calm     89 % 0.00 in 12 W/m2
05:15 55.6 °F 52.4 °F 30.23 in Calm     89 % 0.00 in 14 W/m2
05:20 55.6 °F 52.7 °F 30.23 in Calm     90 % 0.00 in 16 W/m2
05:25 55.6 °F 52.7 °F 30.23 in Calm     90 % 0.00 in 18 W/m2
05:30 55.8 °F 52.9 °F 30.23 in Calm     90 % 0.00 in 18 W/m2
05:35 55.9 °F 53.4 °F 30.23 in Calm     91 % 0.00 in 19 W/m2
05:40 56.1 °F 53.2 °F 30.23 in Calm     90 % 0.00 in 21 W/m2
05:45 56.1 °F 53.2 °F 30.23 in Calm     90 % 0.00 in 21 W/m2
05:50 56.1 °F 53.2 °F 30.23 in Calm     90 % 0.00 in 23 W/m2
05:55 56.3 °F 53.4 °F 30.23 in Calm     90 % 0.00 in 95 W/m2
06:00 56.5 °F 53.6 °F 30.23 in Calm     90 % 0.00 in 111 W/m2
06:05 56.8 °F 53.9 °F 30.23 in Calm     90 % 0.00 in 118 W/m2
06:10 57.4 °F 54.5 °F 30.23 in Calm     90 % 0.00 in 65 W/m2
06:15 57.9 °F 54.7 °F 30.24 in Calm     89 % 0.00 in 35 W/m2
06:20 58.3 °F 54.7 °F 30.24 in Calm     88 % 0.00 in 46 W/m2
06:25 58.5 °F 54.6 °F 30.24 in Calm     87 % 0.00 in 51 W/m2
06:30 58.8 °F 55.0 °F 30.24 in Calm     87 % 0.00 in 39 W/m2
06:35 59.2 °F 55.3 °F 30.23 in Calm     87 % 0.00 in 32 W/m2
06:40 59.4 °F 55.2 °F 30.24 in Calm     86 % 0.00 in 32 W/m2
06:45 59.7 °F 55.2 °F 30.24 in Calm     85 % 0.00 in 33 W/m2
06:50 59.9 °F 55.1 °F 30.24 in Calm     84 % 0.00 in 33 W/m2
06:55 60.3 °F 55.4 °F 30.23 in Calm     84 % 0.00 in 33 W/m2
06:56 60.3 °F 55.4 °F 30.23 in Calm     84 % 0.00 in 35 W/m2
07:01 60.6 °F 55.8 °F 30.24 in Calm     84 % 0.00 in 35 W/m2
07:06 61.2 °F 56.0 °F 30.23 in Calm     83 % 0.00 in 37 W/m2
07:11 61.5 °F 56.3 °F 30.23 in Calm     83 % 0.00 in 83 W/m2
07:16 62.1 °F 56.5 °F 30.23 in Calm     82 % 0.00 in 278 W/m2
07:21 62.4 °F 56.9 °F 30.23 in Calm     82 % 0.00 in 297 W/m2
07:26 63.3 °F 57.4 °F 30.23 in Calm     81 % 0.00 in 311 W/m2
07:32 64.2 °F 57.2 °F 30.23 in Calm     78 % 0.00 in 323 W/m2
07:37 65.1 °F 57.4 °F 30.23 in Calm     76 % 0.00 in 338 W/m2
07:42 65.8 °F 57.7 °F 30.23 in Calm     75 % 0.00 in 352 W/m2
07:47 66.4 °F 57.8 °F 30.23 in Calm     74 % 0.00 in 366 W/m2
07:52 66.9 °F 57.6 °F 30.23 in Calm     72 % 0.00 in 380 W/m2
07:57 67.8 °F 58.1 °F 30.23 in Calm     71 % 0.00 in 392 W/m2
08:02 68.9 °F 58.3 °F 30.23 in Calm     69 % 0.00 in 408 W/m2
08:07 70.0 °F 58.1 °F 30.23 in Calm     66 % 0.00 in 422 W/m2
08:12 70.3 °F 58.0 °F 30.23 in Calm     65 % 0.00 in 432 W/m2
08:18 71.1 °F 58.3 °F 30.23 in Calm     64 % 0.00 in 448 W/m2
08:23 72.0 °F 58.7 °F 30.23 in Calm     63 % 0.00 in 464 W/m2
08:28 72.7 °F 58.5 °F 30.23 in Calm     61 % 0.00 in 475 W/m2
08:33 73.0 °F 58.3 °F 30.23 in Calm     60 % 0.00 in 489 W/m2
08:37 73.0 °F 57.9 °F 30.22 in Calm     59 % 0.00 in 499 W/m2
08:42 73.6 °F 57.9 °F 30.22 in Calm     58 % 0.00 in 513 W/m2
08:48 74.5 °F 57.8 °F 30.22 in Calm     56 % 0.00 in 526 W/m2
08:53 74.8 °F 58.6 °F 30.22 in Calm     57 % 0.00 in 540 W/m2
08:58 75.7 °F 58.4 °F 30.22 in Calm     55 % 0.00 in 552 W/m2
09:03 76.3 °F 58.9 °F 30.22 in Calm     55 % 0.00 in 568 W/m2
09:08 76.3 °F 58.9 °F 30.22 in Calm     55 % 0.00 in 575 W/m2
09:13 76.8 °F 59.4 °F 30.22 in Calm     55 % 0.00 in 587 W/m2
09:18 77.7 °F 59.2 °F 30.22 in Calm     53 % 0.00 in 599 W/m2
09:23 77.7 °F 58.7 °F 30.22 in Calm     52 % 0.00 in 612 W/m2
09:28 77.9 °F 59.4 °F 30.22 in Calm     53 % 0.00 in 617 W/m2
09:33 78.3 °F 60.2 °F 30.22 in Calm   4.0 mph 54 % 0.00 in 629 W/m2
09:38 78.1 °F 60.1 °F 30.22 in South 1.0 mph 5.0 mph 54 % 0.00 in 640 W/m2
09:43 78.3 °F 60.2 °F 30.22 in South 1.0 mph 5.0 mph 54 % 0.00 in 654 W/m2
09:48 78.1 °F 60.1 °F 30.22 in Calm   4.0 mph 54 % 0.00 in 661 W/m2
09:49 78.1 °F 60.1 °F 30.21 in Calm   4.0 mph 54 % 0.00 in 664 W/m2
09:54 78.3 °F 60.2 °F 30.21 in SSW 1.0 mph 6.0 mph 54 % 0.00 in 673 W/m2
09:59 78.3 °F 60.2 °F 30.21 in SW 2.0 mph 6.0 mph 54 % 0.00 in 687 W/m2
10:04 78.4 °F 60.4 °F 30.21 in WSW 2.0 mph 6.0 mph 54 % 0.00 in 696 W/m2
10:09 78.3 °F 60.8 °F 30.21 in WSW 2.0 mph 6.0 mph 55 % 0.00 in 703 W/m2
10:14 78.4 °F 60.9 °F 30.21 in WSW 2.0 mph 6.0 mph 55 % 0.00 in 714 W/m2
10:19 78.8 °F 61.3 °F 30.21 in SE 1.0 mph 5.0 mph 55 % 0.00 in 722 W/m2
10:24 78.6 °F 60.6 °F 30.20 in SSE 2.0 mph 5.0 mph 54 % 0.00 in 729 W/m2
10:29 78.8 °F 60.2 °F 30.20 in SW 3.0 mph 7.0 mph 53 % 0.00 in 740 W/m2
10:34 78.6 °F 60.6 °F 30.20 in SW 3.0 mph 7.0 mph 54 % 0.00 in 749 W/m2
10:39 79.2 °F 61.1 °F 30.20 in WSW 2.0 mph 5.0 mph 54 % 0.00 in 759 W/m2
10:44 79.3 °F 61.2 °F 30.20 in West 3.0 mph 5.0 mph 54 % 0.00 in 765 W/m2
10:49 79.5 °F 60.9 °F 30.20 in West 3.0 mph 7.0 mph 53 % 0.00 in 773 W/m2
10:54 80.1 °F 60.8 °F 30.20 in West 2.0 mph 7.0 mph 52 % 0.00 in 780 W/m2
10:59 80.4 °F 61.2 °F 30.20 in WNW 1.0 mph 4.0 mph 52 % 0.00 in 786 W/m2
11:04 81.1 °F 61.3 °F 30.20 in WNW 1.0 mph 4.0 mph 51 % 0.00 in 796 W/m2
11:09 81.1 °F 61.3 °F 30.20 in South 2.0 mph 7.0 mph 51 % 0.00 in 802 W/m2
11:14 81.0 °F 61.7 °F 30.20 in ESE 3.0 mph 7.0 mph 52 % 0.00 in 809 W/m2
11:19 81.0 °F 61.7 °F 30.20 in ENE 3.0 mph 6.0 mph 52 % 0.00 in 814 W/m2
11:24 81.1 °F 61.3 °F 30.20 in East 3.0 mph 7.0 mph 51 % 0.00 in 819 W/m2
11:29 81.1 °F 61.8 °F 30.19 in East 3.0 mph 7.0 mph 52 % 0.00 in 824 W/m2
11:34 81.1 °F 61.3 °F 30.19 in ENE 1.0 mph 5.0 mph 51 % 0.00 in 835 W/m2
11:39 81.7 °F 61.8 °F 30.19 in West 2.0 mph 5.0 mph 51 % 0.00 in 837 W/m2
11:44 82.6 °F 61.5 °F 30.19 in WNW 2.0 mph 5.0 mph 49 % 0.00 in 840 W/m2
11:49 82.9 °F 61.2 °F 30.19 in WNW 2.0 mph 5.0 mph 48 % 0.00 in 851 W/m2
11:54 83.1 °F 61.4 °F 30.19 in NNW 2.0 mph 6.0 mph 48 % 0.00 in 858 W/m2
11:55 83.1 °F 62.0 °F 30.19 in NNW 2.0 mph 6.0 mph 49 % 0.00 in 858 W/m2
12:00 83.5 °F 61.1 °F 30.19 in ENE 2.0 mph 6.0 mph 47 % 0.00 in 867 W/m2
12:02 83.5 °F 61.7 °F 30.19 in East 2.0 mph 7.0 mph 48 % 0.00 in 872 W/m2
12:07 82.9 °F 61.2 °F 30.19 in SSW 4.0 mph 9.0 mph 48 % 0.00 in 877 W/m2
12:12 82.9 °F 61.8 °F 30.18 in SW 5.0 mph 9.0 mph 49 % 0.00 in 875 W/m2
12:17 83.5 °F 61.7 °F 30.18 in West 3.0 mph 7.0 mph 48 % 0.00 in 886 W/m2
12:22 83.5 °F 61.1 °F 30.18 in SW 3.0 mph 8.0 mph 47 % 0.00 in 893 W/m2
12:27 83.1 °F 60.8 °F 30.18 in SW 4.0 mph 8.0 mph 47 % 0.00 in 889 W/m2
12:32 83.3 °F 62.1 °F 30.18 in NNE 3.0 mph 8.0 mph 49 % 0.00 in 889 W/m2
12:37 84.0 °F 62.8 °F 30.18 in ESE 3.0 mph 7.0 mph 49 % 0.00 in 904 W/m2
12:42 84.2 °F 62.4 °F 30.18 in South 4.0 mph 9.0 mph 48 % 0.00 in 914 W/m2
12:47 84.4 °F 61.9 °F 30.18 in South 4.0 mph 9.0 mph 47 % 0.00 in 933 W/m2
12:52 84.2 °F 61.8 °F 30.18 in South 4.0 mph 8.0 mph 47 % 0.00 in 944 W/m2
12:57 84.2 °F 61.8 °F 30.18 in South 4.0 mph 6.0 mph 47 % 0.00 in 933 W/m2
13:02 84.6 °F 62.1 °F 30.18 in SSW 4.0 mph 9.0 mph 47 % 0.00 in 947 W/m2
13:07 84.9 °F 60.6 °F 30.17 in WSW 5.0 mph 9.0 mph 44 % 0.00 in 190 W/m2
13:12 84.7 °F 60.4 °F 30.17 in West 3.0 mph 9.0 mph 44 % 0.00 in 287 W/m2
13:17 84.7 °F 60.4 °F 30.17 in West 2.0 mph 7.0 mph 44 % 0.00 in 1055 W/m2
13:22 84.9 °F 60.6 °F 30.17 in West 3.0 mph 8.0 mph 44 % 0.00 in 199 W/m2
13:27 84.6 °F 60.2 °F 30.17 in WNW 3.0 mph 8.0 mph 44 % 0.00 in 216 W/m2
13:32 84.7 °F 60.4 °F 30.17 in NW 4.0 mph 8.0 mph 44 % 0.00 in 1021 W/m2
13:37 84.9 °F 60.6 °F 30.17 in West 5.0 mph 11.0 mph 44 % 0.00 in 283 W/m2
13:42 84.9 °F 59.9 °F 30.17 in West 5.0 mph 11.0 mph 43 % 0.00 in 988 W/m2
13:47 85.1 °F 60.1 °F 30.16 in West 5.0 mph 10.0 mph 43 % 0.00 in 988 W/m2
13:52 85.8 °F 61.4 °F 30.17 in West 6.0 mph 12.0 mph 44 % 0.00 in 969 W/m2
13:57 86.5 °F 61.4 °F 30.16 in West 7.0 mph 14.0 mph 43 % 0.00 in 949 W/m2
14:02 86.7 °F 60.9 °F 30.16 in West 6.0 mph 14.0 mph 42 % 0.00 in 970 W/m2
14:07 86.4 °F 60.6 °F 30.16 in West 7.0 mph 14.0 mph 42 % 0.00 in 977 W/m2
14:12 86.5 °F 60.7 °F 30.16 in WNW 8.0 mph 12.0 mph 42 % 0.00 in 969 W/m2
14:17 86.9 °F 60.4 °F 30.16 in WNW 7.0 mph 14.0 mph 41 % 0.00 in 997 W/m2
14:22 87.1 °F 60.5 °F 30.16 in West 8.0 mph 14.0 mph 41 % 0.00 in 940 W/m2
14:27 87.3 °F 60.7 °F 30.16 in West 8.0 mph 13.0 mph 41 % 0.00 in 963 W/m2
14:32 86.5 °F 60.0 °F 30.16 in West 7.0 mph 11.0 mph 41 % 0.00 in 886 W/m2
14:37 85.8 °F 59.4 °F 30.16 in West 8.0 mph 13.0 mph 41 % 0.00 in 141 W/m2
14:42 84.9 °F 59.9 °F 30.16 in West 8.0 mph 13.0 mph 43 % 0.00 in 227 W/m2
14:47 84.6 °F 59.6 °F 30.16 in WSW 7.0 mph 12.0 mph 43 % 0.00 in 359 W/m2
14:52 84.7 °F 59.8 °F 30.16 in West 8.0 mph 13.0 mph 43 % 0.00 in 928 W/m2
14:57 84.9 °F 59.9 °F 30.16 in West 7.0 mph 13.0 mph 43 % 0.00 in 432 W/m2
15:02 85.3 °F 58.9 °F 30.16 in West 8.0 mph 14.0 mph 41 % 0.00 in 121 W/m2
15:07 85.5 °F 59.8 °F 30.16 in WNW 7.0 mph 14.0 mph 42 % 0.00 in 904 W/m2
15:12 85.6 °F 59.2 °F 30.16 in WNW 6.0 mph 13.0 mph 41 % 0.00 in 884 W/m2
15:17 86.0 °F 58.9 °F 30.16 in WNW 7.0 mph 13.0 mph 40 % 0.00 in 867 W/m2
15:22 86.4 °F 58.5 °F 30.16 in WNW 8.0 mph 13.0 mph 39 % 0.00 in 861 W/m2
15:27 86.7 °F 59.5 °F 30.16 in WNW 8.0 mph 14.0 mph 40 % 0.00 in 849 W/m2
15:32 86.9 °F 59.0 °F 30.16 in WNW 8.0 mph 14.0 mph 39 % 0.00 in 812 W/m2
15:33 87.1 °F 58.4 °F 30.16 in WNW 8.0 mph 14.0 mph 38 % 0.00 in 838 W/m2
15:38 87.3 °F 59.3 °F 30.16 in NW 7.0 mph 12.0 mph 39 % 0.00 in 831 W/m2
15:44 87.6 °F 59.6 °F 30.16 in NW 7.0 mph 14.0 mph 39 % 0.00 in 844 W/m2
15:49 88.0 °F 59.2 °F 30.15 in WNW 7.0 mph 14.0 mph 38 % 0.00 in 849 W/m2
15:54 87.4 °F 59.4 °F 30.15 in West 8.0 mph 14.0 mph 39 % 0.00 in 853 W/m2
15:59 86.7 °F 59.5 °F 30.15 in WSW 7.0 mph 14.0 mph 40 % 0.00 in 158 W/m2
16:04 86.4 °F 59.2 °F 30.16 in West 6.0 mph 11.0 mph 40 % 0.00 in 788 W/m2
16:09 86.2 °F 59.7 °F 30.15 in West 7.0 mph 11.0 mph 41 % 0.00 in 765 W/m2
16:14 86.5 °F 58.6 °F 30.15 in West 7.0 mph 11.0 mph 39 % 0.00 in 759 W/m2
16:19 86.7 °F 58.8 °F 30.16 in West 7.0 mph 12.0 mph 39 % 0.00 in 768 W/m2
16:24 86.5 °F 59.3 °F 30.15 in WSW 7.0 mph 12.0 mph 40 % 0.00 in 582 W/m2
16:29 85.8 °F 59.4 °F 30.15 in WSW 6.0 mph 11.0 mph 41 % 0.00 in 722 W/m2
16:34 85.8 °F 58.7 °F 30.15 in West 6.0 mph 10.0 mph 40 % 0.00 in 721 W/m2
16:39 86.2 °F 59.7 °F 30.15 in West 6.0 mph 11.0 mph 41 % 0.00 in 684 W/m2
16:44 86.2 °F 59.7 °F 30.15 in WSW 6.0 mph 11.0 mph 41 % 0.00 in 661 W/m2
16:49 86.5 °F 59.3 °F 30.15 in West 7.0 mph 13.0 mph 40 % 0.00 in 638 W/m2
16:54 86.7 °F 58.8 °F 30.15 in WNW 7.0 mph 13.0 mph 39 % 0.00 in 670 W/m2
16:59 86.7 °F 58.8 °F 30.15 in WNW 6.0 mph 12.0 mph 39 % 0.00 in 181 W/m2
17:04 86.4 °F 59.9 °F 30.15 in WNW 6.0 mph 10.0 mph 41 % 0.00 in 687 W/m2
17:09 86.7 °F 59.5 °F 30.15 in WNW 7.0 mph 11.0 mph 40 % 0.00 in 679 W/m2
17:14 86.7 °F 59.5 °F 30.15 in West 6.0 mph 13.0 mph 40 % 0.00 in 206 W/m2
17:19 86.4 °F 59.2 °F 30.15 in West 6.0 mph 13.0 mph 40 % 0.00 in 640 W/m2
17:24 86.4 °F 59.2 °F 30.15 in West 6.0 mph 12.0 mph 40 % 0.00 in 585 W/m2
17:29 86.5 °F 59.3 °F 30.15 in WNW 6.0 mph 12.0 mph 40 % 0.00 in 536 W/m2
17:34 86.7 °F 59.5 °F 30.15 in WNW 6.0 mph 15.0 mph 40 % 0.00 in 487 W/m2
17:39 86.4 °F 59.2 °F 30.15 in West 7.0 mph 15.0 mph 40 % 0.00 in 457 W/m2
17:44 86.2 °F 59.0 °F 30.15 in West 6.0 mph 11.0 mph 40 % 0.00 in 380 W/m2
17:49 85.8 °F 58.7 °F 30.15 in West 5.0 mph 9.0 mph 40 % 0.00 in 466 W/m2
17:54 85.8 °F 58.7 °F 30.15 in West 5.0 mph 12.0 mph 40 % 0.00 in 439 W/m2
17:55 85.8 °F 58.7 °F 30.15 in WNW 5.0 mph 12.0 mph 40 % 0.00 in 438 W/m2
18:00 86.2 °F 59.7 °F 30.15 in WNW 5.0 mph 12.0 mph 41 % 0.00 in 450 W/m2
18:05 86.4 °F 59.2 °F 30.15 in WNW 4.0 mph 8.0 mph 40 % 0.00 in 427 W/m2
18:10 86.5 °F 59.3 °F 30.15 in WNW 4.0 mph 8.0 mph 40 % 0.00 in 401 W/m2
18:15 86.5 °F 59.3 °F 30.15 in WNW 5.0 mph 11.0 mph 40 % 0.00 in 397 W/m2
18:20 86.4 °F 58.5 °F 30.15 in WNW 6.0 mph 11.0 mph 39 % 0.00 in 387 W/m2
18:25 85.8 °F 58.0 °F 30.14 in WNW 4.0 mph 10.0 mph 39 % 0.00 in 345 W/m2
18:30 85.5 °F 59.1 °F 30.14 in West 4.0 mph 7.0 mph 41 % 0.00 in 336 W/m2
18:35 85.3 °F 58.9 °F 30.14 in WNW 4.0 mph 8.0 mph 41 % 0.00 in 323 W/m2
18:40 85.3 °F 58.9 °F 30.14 in WNW 5.0 mph 10.0 mph 41 % 0.00 in 304 W/m2
18:46 85.5 °F 59.1 °F 30.14 in NW 5.0 mph 10.0 mph 41 % 0.00 in 287 W/m2
18:50 85.5 °F 59.1 °F 30.14 in WNW 4.0 mph 8.0 mph 41 % 0.00 in 272 W/m2
18:56 85.1 °F 58.8 °F 30.14 in WNW 4.0 mph 8.0 mph 41 % 0.00 in 258 W/m2
19:01 85.3 °F 58.9 °F 30.14 in WNW 3.0 mph 7.0 mph 41 % 0.00 in 246 W/m2
19:06 85.3 °F 58.2 °F 30.14 in NW 4.0 mph 8.0 mph 40 % 0.00 in 239 W/m2
19:11 85.3 °F 58.2 °F 30.14 in WNW 4.0 mph 8.0 mph 40 % 0.00 in 227 W/m2
19:16 85.3 °F 58.9 °F 30.14 in WNW 4.0 mph 7.0 mph 41 % 0.00 in 216 W/m2
19:21 85.5 °F 59.1 °F 30.14 in WNW 4.0 mph 7.0 mph 41 % 0.00 in 207 W/m2
19:26 85.3 °F 58.9 °F 30.14 in WNW 3.0 mph 7.0 mph 41 % 0.00 in 193 W/m2
19:31 85.3 °F 59.6 °F 30.13 in WNW 2.0 mph 6.0 mph 42 % 0.00 in 183 W/m2
19:36 85.1 °F 59.4 °F 30.14 in WNW 2.0 mph 7.0 mph 42 % 0.00 in 172 W/m2
19:41 84.9 °F 59.9 °F 30.14 in WNW 3.0 mph 7.0 mph 43 % 0.00 in 162 W/m2
19:46 84.7 °F 59.8 °F 30.14 in WNW 3.0 mph 7.0 mph 43 % 0.00 in 151 W/m2
19:51 84.4 °F 60.1 °F 30.14 in WNW 4.0 mph 7.0 mph 44 % 0.00 in 146 W/m2
19:56 84.2 °F 59.3 °F 30.14 in NW 3.0 mph 6.0 mph 43 % 0.00 in 132 W/m2
20:01 84.0 °F 59.8 °F 30.14 in NW 1.0 mph 6.0 mph 44 % 0.00 in 116 W/m2
20:06 83.7 °F 60.1 °F 30.13 in NW 2.0 mph 6.0 mph 45 % 0.00 in 47 W/m2
20:11 83.1 °F 60.8 °F 30.13 in NW 4.0 mph 9.0 mph 47 % 0.00 in 44 W/m2
20:16 82.6 °F 61.5 °F 30.13 in NW 4.0 mph 9.0 mph 49 % 0.00 in 53 W/m2
20:21 82.0 °F 61.0 °F 30.13 in NW 4.0 mph 7.0 mph 49 % 0.00 in 30 W/m2
20:26 81.3 °F 60.9 °F 30.13 in NW 5.0 mph 9.0 mph 50 % 0.00 in 26 W/m2
20:31 80.8 °F 61.0 °F 30.13 in NW 5.0 mph 8.0 mph 51 % 0.00 in 25 W/m2
20:36 80.2 °F 61.0 °F 30.14 in NW 4.0 mph 10.0 mph 52 % 0.00 in 26 W/m2
20:41 79.7 °F 60.5 °F 30.13 in NW 4.0 mph 10.0 mph 52 % 0.00 in 23 W/m2
20:46 79.2 °F 60.6 °F 30.14 in NW 4.0 mph 8.0 mph 53 % 0.00 in 21 W/m2
20:47 79.2 °F 60.6 °F 30.13 in NW 5.0 mph 8.0 mph 53 % 0.00 in 21 W/m2
20:52 78.6 °F 60.6 °F 30.14 in NW 5.0 mph 8.0 mph 54 % 0.00 in 19 W/m2
20:57 78.3 °F 60.8 °F 30.14 in NW 4.0 mph 8.0 mph 55 % 0.00 in 18 W/m2
21:02 77.7 °F 60.8 °F 30.14 in NW 5.0 mph 8.0 mph 56 % 0.00 in 16 W/m2
21:07 77.4 °F 60.9 °F 30.14 in NW 5.0 mph 8.0 mph 57 % 0.00 in 14 W/m2
21:12 77.0 °F 60.6 °F 30.14 in NW 4.0 mph 7.0 mph 57 % 0.00 in 12 W/m2
21:17 76.8 °F 60.9 °F 30.14 in NW 3.0 mph 7.0 mph 58 % 0.00 in 11 W/m2
21:22 76.5 °F 61.1 °F 30.14 in NW 2.0 mph 6.0 mph 59 % 0.00 in 9 W/m2
21:27 76.3 °F 60.9 °F 30.14 in NNW 2.0 mph 6.0 mph 59 % 0.00 in 9 W/m2
21:32 75.9 °F 60.6 °F 30.14 in NNW 2.0 mph 5.0 mph 59 % 0.00 in 7 W/m2
21:37 75.7 °F 60.4 °F 30.15 in North 2.0 mph 5.0 mph 59 % 0.00 in 5 W/m2
21:42 75.6 °F 60.2 °F 30.15 in NNE 1.0 mph 5.0 mph 59 % 0.00 in 0 W/m2
21:47 75.4 °F 60.5 °F 30.15 in North 1.0 mph 5.0 mph 60 % 0.00 in 0 W/m2
21:52 75.0 °F 60.7 °F 30.15 in NNW 1.0 mph 5.0 mph 61 % 0.00 in 0 W/m2
21:57 74.8 °F 60.5 °F 30.15 in NNW 1.0 mph 5.0 mph 61 % 0.00 in 0 W/m2
22:02 74.7 °F 60.8 °F 30.15 in Calm   1.0 mph 62 % 0.00 in 0 W/m2
22:07 74.1 °F 61.2 °F 30.15 in Calm     64 % 0.00 in 0 W/m2
22:12 73.8 °F 60.8 °F 30.15 in Calm   4.0 mph 64 % 0.00 in 0 W/m2
22:17 73.2 °F 60.7 °F 30.15 in Calm   4.0 mph 65 % 0.00 in 0 W/m2
22:22 72.9 °F 60.8 °F 30.15 in Calm     66 % 0.00 in 0 W/m2
22:27 72.3 °F 60.7 °F 30.15 in Calm   1.0 mph 67 % 0.00 in 0 W/m2
22:29 72.3 °F 60.7 °F 30.16 in Calm   1.0 mph 67 % 0.00 in 0 W/m2
22:34 72.0 °F 60.4 °F 30.16 in Calm   6.0 mph 67 % 0.00 in 0 W/m2
22:39 71.6 °F 61.3 °F 30.16 in Calm   6.0 mph 70 % 0.00 in 0 W/m2
22:44 70.9 °F 61.0 °F 30.16 in Calm   4.0 mph 71 % 0.00 in 0 W/m2
22:49 70.3 °F 61.3 °F 30.16 in Calm   4.0 mph 73 % 0.00 in 0 W/m2
22:54 70.0 °F 61.3 °F 30.16 in Calm     74 % 0.00 in 0 W/m2
22:59 69.4 °F 61.2 °F 30.16 in Calm     75 % 0.00 in 0 W/m2
23:04 68.9 °F 61.0 °F 30.16 in Calm     76 % 0.00 in 0 W/m2
23:09 68.5 °F 61.0 °F 30.16 in Calm   2.0 mph 77 % 0.00 in 0 W/m2
23:14 68.2 °F 60.7 °F 30.16 in NW 1.0 mph 4.0 mph 77 % 0.00 in 0 W/m2
23:19 67.8 °F 60.7 °F 30.16 in Calm   4.0 mph 78 % 0.00 in 0 W/m2
23:24 67.6 °F 60.5 °F 30.16 in Calm     78 % 0.00 in 0 W/m2
23:29 67.5 °F 60.4 °F 30.16 in Calm     78 % 0.00 in 0 W/m2
23:34 67.3 °F 60.5 °F 30.16 in Calm   1.0 mph 79 % 0.00 in 0 W/m2
23:39 67.1 °F 60.4 °F 30.16 in Calm   1.0 mph 79 % 0.00 in 0 W/m2
23:44 66.9 °F 60.2 °F 30.16 in Calm   2.0 mph 79 % 0.00 in 0 W/m2
23:49 66.7 °F 60.0 °F 30.16 in Calm   2.0 mph 79 % 0.00 in 0 W/m2
23:54 66.6 °F 59.8 °F 30.16 in Calm     79 % 0.00 in 0 W/m2
23:59 66.4 °F 60.0 °F 30.16 in Calm     80 % 0.00 in 0 W/m2
Delerius-Weather
Compliments of Weather Underground - 2.25 mb

Data updates at regular intervals.